Terminal Aerodrome Forecast
Issued by NWS Sioux Falls, SD

Home | Current Version | Previous Version | Graphics & Text | Print | Product List | Glossary Off
Versions: 1 2 3 4 5 6 7 8 9 10 11 12 13 14 15 16 17 18 19 20 21 22 23 24 25 26 27 28 29 30

000
FTUS43 KFSD 270600 RRA
TAFFSD
TAF
KFSD 270635Z 2707/2806 10004KT P6SM SCT070
     FM271800 13007KT P6SM FEW030 BKN120
     FM280300 13007KT P6SM SCT015 BKN120
      TEMPO 2803/2806 3SM TSRA SCT008 OVC020CB=

USA.gov is the U.S. government's official web portal to all federal, state and local government web resources and services.